Time,TemperatureF,DewpointF,PressureIn,WindDirection,WindDirectionDegrees,WindSpeedMPH,WindSpeedGustMPH,Humidity,HourlyPrecipIn,Conditions,Clouds,dailyrainin,SoftwareType,DateUTC
2013-04-18 00:02:00,37.8,13.3,30.17,NW,311,0.0,0.0,36,0.00,,FEW200,0.00,VWS V14.01,2013-04-18 06:02:00,
2013-04-18 00:07:00,37.9,12.7,30.17,NW,311,0.0,0.0,35,0.00,,FEW200,0.00,VWS V14.01,2013-04-18 06:07:00,
2013-04-18 00:12:00,37.8,14.5,30.17,NW,311,0.0,0.0,38,0.00,,FEW200,0.00,VWS V14.01,2013-04-18 06:12:00,
2013-04-18 00:17:00,37.5,14.2,30.12,NW,312,0.0,0.0,38,0.00,,FEW200,0.00,VWS V14.01,2013-04-18 06:17:00,
2013-04-18 00:22:00,37.3,12.8,30.12,NW,317,0.0,0.0,36,0.00,,FEW200,0.00,VWS V14.01,2013-04-18 06:22:00,
2013-04-18 00:27:00,37.5,13.6,30.12,NW,325,0.0,0.0,37,0.00,,FEW200,0.00,VWS V14.01,2013-04-18 06:27:00,
2013-04-18 00:32:00,37.5,14.2,30.12,NW,325,0.0,0.0,38,0.00,,FEW200,0.00,VWS V14.01,2013-04-18 06:32:00,
2013-04-18 00:37:00,37.0,14.4,30.12,NNW,340,0.0,0.0,39,0.00,,SKC,0.00,VWS V14.01,2013-04-18 06:37:00,
2013-04-18 00:42:00,36.8,14.8,30.12,NNW,340,0.0,0.0,40,0.00,,SKC,0.00,VWS V14.01,2013-04-18 06:42:00,
2013-04-18 00:47:00,36.5,14.5,30.13,NW,323,0.0,0.0,40,0.00,,SKC,0.00,VWS V14.01,2013-04-18 06:47:00,
2013-04-18 00:52:00,36.3,13.7,30.13,NW,317,0.0,0.0,39,0.00,,SKC,0.00,VWS V14.01,2013-04-18 06:52:00,
2013-04-18 00:57:00,36.2,14.2,30.13,NW,317,0.0,0.0,40,0.00,,SKC,0.00,VWS V14.01,2013-04-18 06:57:00,
2013-04-18 01:02:00,36.0,13.5,30.13,NW,319,0.0,0.0,39,0.00,,SKC,0.00,VWS V14.01,2013-04-18 07:02:00,
2013-04-18 01:07:00,36.0,14.0,30.13,NW,319,0.0,0.0,40,0.00,,SKC,0.00,VWS V14.01,2013-04-18 07:07:00,
2013-04-18 01:12:00,35.9,15.1,30.13,NW,319,0.0,0.0,42,0.00,,SKC,0.00,VWS V14.01,2013-04-18 07:12:00,
2013-04-18 01:17:00,35.9,13.4,30.11,NW,317,0.0,0.0,39,0.00,,SKC,0.00,VWS V14.01,2013-04-18 07:17:00,
2013-04-18 01:22:00,36.0,14.6,30.11,NW,316,0.0,0.0,41,0.00,,SKC,0.00,VWS V14.01,2013-04-18 07:22:00,
2013-04-18 01:27:00,35.9,16.6,30.11,NW,316,0.0,0.0,45,0.00,,SKC,0.00,VWS V14.01,2013-04-18 07:27:00,
2013-04-18 01:32:00,35.6,15.9,30.11,NW,316,0.0,0.0,44,0.00,,SKC,0.00,VWS V14.01,2013-04-18 07:32:00,
2013-04-18 01:37:00,35.3,14.0,30.11,NW,321,0.0,0.0,41,0.00,,SKC,0.00,VWS V14.01,2013-04-18 07:37:00,
2013-04-18 01:42:00,35.3,14.0,30.11,NW,319,0.0,0.0,41,0.00,,SKC,0.00,VWS V14.01,2013-04-18 07:42:00,
2013-04-18 01:47:00,35.2,14.4,30.12,NW,319,0.0,0.0,42,0.00,,SKC,0.00,VWS V14.01,2013-04-18 07:47:00,
2013-04-18 01:52:00,34.9,14.7,30.12,NW,319,0.0,0.0,43,0.00,,SKC,0.00,VWS V14.01,2013-04-18 07:52:00,
2013-04-18 01:57:00,34.9,14.1,30.12,NW,319,0.0,0.0,42,0.00,,SKC,0.00,VWS V14.01,2013-04-18 07:57:00,
2013-04-18 02:02:00,34.6,16.0,30.11,NW,307,0.0,0.0,46,0.00,,SKC,0.00,VWS V14.01,2013-04-18 08:02:00,
2013-04-18 02:07:00,34.4,14.8,30.11,NW,307,0.0,0.0,44,0.00,,SKC,0.00,VWS V14.01,2013-04-18 08:07:00,
2013-04-18 02:12:00,34.6,13.9,30.11,NW,307,0.0,0.0,42,0.00,,SKC,0.00,VWS V14.01,2013-04-18 08:12:00,
2013-04-18 02:17:00,34.9,15.2,30.09,NW,307,0.0,0.0,44,0.00,,SKC,0.00,VWS V14.01,2013-04-18 08:17:00,
2013-04-18 02:22:00,34.9,14.7,30.09,NW,307,0.0,0.0,43,0.00,,SKC,0.00,VWS V14.01,2013-04-18 08:22:00,
2013-04-18 02:27:00,35.2,14.4,30.09,NW,316,0.0,0.0,42,0.00,,SKC,0.00,VWS V14.01,2013-04-18 08:27:00,
2013-04-18 02:32:00,35.6,14.2,30.09,NW,316,0.0,0.0,41,0.00,,SKC,0.00,VWS V14.01,2013-04-18 08:32:00,
2013-04-18 02:37:00,35.8,15.0,30.09,NW,309,0.0,0.0,42,0.00,,SKC,0.00,VWS V14.01,2013-04-18 08:37:00,
2013-04-18 02:42:00,35.8,14.4,30.09,NW,323,0.0,0.0,41,0.00,,SKC,0.00,VWS V14.01,2013-04-18 08:42:00,
2013-04-18 02:47:00,36.0,14.0,30.09,NW,322,0.0,0.0,40,0.00,,SKC,0.00,VWS V14.01,2013-04-18 08:47:00,
2013-04-18 02:52:00,36.0,14.6,30.09,NW,316,0.0,0.0,41,0.00,,SKC,0.00,VWS V14.01,2013-04-18 08:52:00,
2013-04-18 02:57:00,35.8,13.9,30.09,NW,316,0.0,0.0,40,0.00,,SKC,0.00,VWS V14.01,2013-04-18 08:57:00,
2013-04-18 03:02:00,35.6,14.8,30.10,NW,314,0.0,0.0,42,0.00,,SKC,0.00,VWS V14.01,2013-04-18 09:02:00,
2013-04-18 03:07:00,35.5,14.7,30.10,NW,314,0.0,0.0,42,0.00,,SKC,0.00,VWS V14.01,2013-04-18 09:07:00,
2013-04-18 03:12:00,35.3,14.0,30.10,NW,316,0.0,1.0,41,0.00,,SKC,0.00,VWS V14.01,2013-04-18 09:12:00,
2013-04-18 03:17:00,35.3,15.1,30.11,NW,317,0.0,1.0,43,0.00,,SKC,0.00,VWS V14.01,2013-04-18 09:17:00,
2013-04-18 03:22:00,35.0,14.8,30.11,NW,317,0.0,1.0,43,0.00,,SKC,0.00,VWS V14.01,2013-04-18 09:22:00,
2013-04-18 03:27:00,34.7,15.0,30.11,NW,317,0.0,1.0,44,0.00,,SKC,0.00,VWS V14.01,2013-04-18 09:27:00,
2013-04-18 03:32:00,34.7,14.5,30.11,NW,312,0.0,0.0,43,0.00,,SKC,0.00,VWS V14.01,2013-04-18 09:32:00,
2013-04-18 03:37:00,35.0,14.8,30.11,NW,316,0.0,0.0,43,0.00,,SKC,0.00,VWS V14.01,2013-04-18 09:37:00,
2013-04-18 03:42:00,35.0,14.8,30.11,NW,316,0.0,0.0,43,0.00,,SKC,0.00,VWS V14.01,2013-04-18 09:42:00,
2013-04-18 03:47:00,34.9,15.2,30.11,NW,316,0.0,0.0,44,0.00,,SKC,0.00,VWS V14.01,2013-04-18 09:47:00,
2013-04-18 03:52:00,34.4,15.3,30.11,NW,314,0.0,0.0,45,0.00,,SKC,0.00,VWS V14.01,2013-04-18 09:52:00,
2013-04-18 03:57:00,34.3,15.7,30.11,NNW,328,0.0,0.0,46,0.00,,SKC,0.00,VWS V14.01,2013-04-18 09:57:00,
2013-04-18 04:02:00,34.0,15.4,30.11,NNW,330,0.0,0.0,46,0.00,,SKC,0.00,VWS V14.01,2013-04-18 10:02:00,
2013-04-18 04:07:00,34.1,15.5,30.11,NNW,328,0.0,0.0,46,0.00,,SKC,0.00,VWS V14.01,2013-04-18 10:07:00,
2013-04-18 04:12:00,33.8,17.1,30.11,NNW,328,0.0,0.0,50,0.00,,SKC,0.00,VWS V14.01,2013-04-18 10:12:00,
2013-04-18 04:17:00,33.5,15.4,30.11,NW,307,0.0,0.0,47,0.00,,SKC,0.00,VWS V14.01,2013-04-18 10:17:00,
2013-04-18 04:22:00,33.7,15.1,30.11,NW,307,0.0,0.0,46,0.00,,SKC,0.00,VWS V14.01,2013-04-18 10:22:00,
2013-04-18 04:27:00,33.7,15.1,30.11,WNW,296,0.0,0.0,46,0.00,,SKC,0.00,VWS V14.01,2013-04-18 10:27:00,
2013-04-18 04:32:00,33.8,15.2,30.11,WNW,296,0.0,0.0,46,0.00,,SKC,0.00,VWS V14.01,2013-04-18 10:32:00,
2013-04-18 04:37:00,33.8,16.7,30.11,WNW,296,0.0,0.0,49,0.00,,SKC,0.00,VWS V14.01,2013-04-18 10:37:00,
2013-04-18 04:42:00,33.1,17.8,30.11,WNW,296,0.0,0.0,53,0.00,,SKC,0.00,VWS V14.01,2013-04-18 10:42:00,
2013-04-18 04:47:00,32.4,16.8,30.12,WNW,296,0.0,0.0,52,0.00,,SKC,0.00,VWS V14.01,2013-04-18 10:47:00,
2013-04-18 04:52:00,32.1,16.0,30.12,WNW,296,0.0,0.0,51,0.00,,SKC,0.00,VWS V14.01,2013-04-18 10:52:00,
2013-04-18 04:57:00,32.7,15.2,30.12,NW,324,0.0,0.0,48,0.00,,SKC,0.00,VWS V14.01,2013-04-18 10:57:00,
2013-04-18 05:02:00,33.4,14.9,30.12,NW,317,0.0,0.0,46,0.00,,SKC,0.00,VWS V14.01,2013-04-18 11:02:00,
2013-04-18 05:07:00,33.8,14.7,30.12,NW,316,0.0,1.0,45,0.00,,BKN070,0.00,VWS V14.01,2013-04-18 11:07:00,
2013-04-18 05:12:00,34.1,15.5,30.12,NW,314,0.0,1.0,46,0.00,,BKN070,0.00,VWS V14.01,2013-04-18 11:12:00,
2013-04-18 05:17:00,33.8,15.7,30.11,NW,314,0.0,1.0,47,0.00,,BKN070,0.00,VWS V14.01,2013-04-18 11:17:00,
2013-04-18 05:22:00,33.5,15.9,30.11,NW,314,0.0,1.0,48,0.00,,BKN070,0.00,VWS V14.01,2013-04-18 11:22:00,
2013-04-18 05:27:00,33.4,15.8,30.11,NW,309,0.0,1.0,48,0.00,,BKN070,0.00,VWS V14.01,2013-04-18 11:27:00,
2013-04-18 05:31:00,33.2,16.1,30.11,NW,311,0.0,0.0,49,0.00,,BKN070,0.00,VWS V14.01,2013-04-18 11:31:00,
2013-04-18 05:36:00,32.8,16.7,30.11,NW,311,0.0,0.0,51,0.00,,BKN070,0.00,VWS V14.01,2013-04-18 11:36:00,
2013-04-18 05:41:00,32.4,15.9,30.11,NW,311,0.0,0.0,50,0.00,,BKN070,0.00,VWS V14.01,2013-04-18 11:41:00,
2013-04-18 05:46:00,32.1,15.6,30.12,East,89,0.0,0.0,50,0.00,,BKN070,0.00,VWS V14.01,2013-04-18 11:46:00,
2013-04-18 05:51:00,32.2,15.2,30.12,NNW,328,0.0,0.0,49,0.00,,BKN070,0.00,VWS V14.01,2013-04-18 11:51:00,
2013-04-18 05:56:00,32.4,15.4,30.12,NNW,332,0.0,0.0,49,0.00,,BKN070,0.00,VWS V14.01,2013-04-18 11:56:00,
2013-04-18 06:01:00,32.2,15.7,30.12,NNW,332,0.0,0.0,50,0.00,,BKN070,0.00,VWS V14.01,2013-04-18 12:01:00,
2013-04-18 06:06:00,32.2,15.7,30.12,NNW,332,0.0,0.0,50,0.00,,BKN070,0.00,VWS V14.01,2013-04-18 12:06:00,
2013-04-18 06:11:00,32.1,16.0,30.12,NNW,333,0.0,0.0,51,0.00,,BKN070,0.00,VWS V14.01,2013-04-18 12:11:00,
2013-04-18 06:16:00,31.9,16.3,30.12,NNW,333,0.0,0.0,52,0.00,,BKN070,0.00,VWS V14.01,2013-04-18 12:16:00,
2013-04-18 06:21:00,31.6,16.9,30.12,NNW,333,0.0,0.0,54,0.00,,BKN070,0.00,VWS V14.01,2013-04-18 12:21:00,
2013-04-18 06:26:00,31.5,16.8,30.12,NNW,333,0.0,0.0,54,0.00,,BKN070,0.00,VWS V14.01,2013-04-18 12:26:00,
2013-04-18 06:31:00,31.3,16.6,30.14,NNW,333,0.0,0.0,54,0.00,,BKN070,0.00,VWS V14.01,2013-04-18 12:31:00,
2013-04-18 06:37:00,31.2,16.1,30.14,NNW,333,0.0,0.0,53,0.00,,BKN090,0.00,VWS V14.01,2013-04-18 12:37:00,
2013-04-18 06:42:00,31.2,17.3,30.14,NNW,333,0.0,0.0,56,0.00,,BKN090,0.00,VWS V14.01,2013-04-18 12:42:00,
2013-04-18 06:47:00,31.0,18.0,30.14,NNW,333,0.0,0.0,58,0.00,,BKN090,0.00,VWS V14.01,2013-04-18 12:47:00,
2013-04-18 06:52:00,30.9,17.5,30.14,NNW,335,0.0,0.0,57,0.00,,BKN090,0.00,VWS V14.01,2013-04-18 12:52:00,
2013-04-18 06:57:00,31.0,17.6,30.14,NNW,335,0.0,0.0,57,0.00,,BKN090,0.00,VWS V14.01,2013-04-18 12:57:00,
2013-04-18 07:02:00,31.2,17.3,30.14,NNW,335,0.0,0.0,56,0.00,,BKN090,0.00,VWS V14.01,2013-04-18 13:02:00,
2013-04-18 07:06:00,31.3,17.0,30.14,NNW,335,0.0,0.0,55,0.00,,BKN090,0.00,VWS V14.01,2013-04-18 13:06:00,
2013-04-18 07:12:00,31.5,17.6,30.14,NNW,335,0.0,0.0,56,0.00,,BKN090,0.00,VWS V14.01,2013-04-18 13:12:00,
2013-04-18 07:16:00,31.6,16.9,30.15,NNW,335,0.0,0.0,54,0.00,,BKN090,0.00,VWS V14.01,2013-04-18 13:16:00,
2013-04-18 07:22:00,31.8,16.6,30.15,NNW,335,0.0,0.0,53,0.00,,BKN090,0.00,VWS V14.01,2013-04-18 13:22:00,
2013-04-18 07:27:00,32.2,16.6,30.15,NNW,335,0.0,0.0,52,0.00,,BKN090,0.00,VWS V14.01,2013-04-18 13:27:00,
2013-04-18 07:32:00,32.5,16.9,30.16,NW,326,0.0,0.0,52,0.00,,BKN090,0.00,VWS V14.01,2013-04-18 13:32:00,
2013-04-18 07:37:00,32.7,16.6,30.16,NW,326,0.0,0.0,51,0.00,,BKN130,0.00,VWS V14.01,2013-04-18 13:37:00,
2013-04-18 07:42:00,32.7,17.0,30.16,NW,326,0.0,0.0,52,0.00,,BKN130,0.00,VWS V14.01,2013-04-18 13:42:00,
2013-04-18 07:47:00,32.7,16.6,30.16,NW,326,0.0,0.0,51,0.00,,BKN130,0.00,VWS V14.01,2013-04-18 13:47:00,
2013-04-18 07:52:00,32.8,16.7,30.16,NW,326,0.0,0.0,51,0.00,,BKN130,0.00,VWS V14.01,2013-04-18 13:52:00,
2013-04-18 07:57:00,32.9,15.9,30.16,NW,312,0.0,0.0,49,0.00,,BKN130,0.00,VWS V14.01,2013-04-18 13:57:00,
2013-04-18 08:02:00,33.5,16.4,30.16,NW,315,0.0,0.0,49,0.00,,BKN130,0.00,VWS V14.01,2013-04-18 14:02:00,
2013-04-18 08:07:00,33.8,16.7,30.16,NW,319,0.0,0.0,49,0.00,,BKN130,0.00,VWS V14.01,2013-04-18 14:07:00,
2013-04-18 08:12:00,33.8,17.6,30.16,NW,311,0.0,0.0,51,0.00,,BKN130,0.00,VWS V14.01,2013-04-18 14:12:00,
2013-04-18 08:17:00,34.0,16.9,30.16,NW,320,0.0,0.0,49,0.00,,BKN130,0.00,VWS V14.01,2013-04-18 14:17:00,
2013-04-18 08:22:00,34.3,17.6,30.16,NW,319,0.0,0.0,50,0.00,,BKN130,0.00,VWS V14.01,2013-04-18 14:22:00,
2013-04-18 08:27:00,34.4,17.2,30.16,NW,325,0.0,0.0,49,0.00,,BKN130,0.00,VWS V14.01,2013-04-18 14:27:00,
2013-04-18 08:32:00,34.7,17.5,30.15,NW,324,0.0,0.0,49,0.00,,BKN130,0.00,VWS V14.01,2013-04-18 14:32:00,
2013-04-18 08:37:00,34.7,17.5,30.15,NW,324,0.0,0.0,49,0.00,,OVC080,0.00,VWS V14.01,2013-04-18 14:37:00,
2013-04-18 08:42:00,34.7,17.5,30.15,NW,325,0.0,0.0,49,0.00,,OVC080,0.00,VWS V14.01,2013-04-18 14:42:00,
2013-04-18 08:47:00,34.7,17.5,30.15,NW,324,0.0,0.0,49,0.00,,OVC080,0.00,VWS V14.01,2013-04-18 14:47:00,
2013-04-18 08:52:00,34.9,17.7,30.15,NW,324,0.0,0.0,49,0.00,,OVC080,0.00,VWS V14.01,2013-04-18 14:52:00,
2013-04-18 08:57:00,35.0,17.8,30.15,NW,324,0.0,0.0,49,0.00,,OVC080,0.00,VWS V14.01,2013-04-18 14:57:00,
2013-04-18 09:02:00,35.5,17.8,30.15,NW,324,0.0,0.0,48,0.00,,OVC080,0.00,VWS V14.01,2013-04-18 15:02:00,
2013-04-18 09:07:00,36.0,17.2,30.15,NW,325,0.0,0.0,46,0.00,,OVC080,0.00,VWS V14.01,2013-04-18 15:07:00,
2013-04-18 09:12:00,36.8,18.0,30.15,NW,321,0.0,0.0,46,0.00,,OVC080,0.00,VWS V14.01,2013-04-18 15:12:00,
2013-04-18 09:17:00,37.3,17.4,30.14,NW,321,0.0,0.0,44,0.00,,OVC080,0.00,VWS V14.01,2013-04-18 15:17:00,
2013-04-18 09:22:00,37.9,18.0,30.14,NW,321,0.0,0.0,44,0.00,,OVC080,0.00,VWS V14.01,2013-04-18 15:22:00,
2013-04-18 09:27:00,38.2,18.2,30.14,NW,321,0.0,0.0,44,0.00,,OVC080,0.00,VWS V14.01,2013-04-18 15:27:00,
2013-04-18 09:32:00,38.6,18.6,30.13,NW,312,0.0,0.0,44,0.00,,OVC080,0.00,VWS V14.01,2013-04-18 15:32:00,
2013-04-18 09:37:00,38.9,19.4,30.13,North,0,0.0,0.0,45,0.00,,BKN110,0.00,VWS V14.01,2013-04-18 15:37:00,
2013-04-18 09:42:00,39.3,18.7,30.13,NW,321,0.0,0.0,43,0.00,,BKN110,0.00,VWS V14.01,2013-04-18 15:42:00,
2013-04-18 09:47:00,39.6,18.4,30.13,NNW,334,0.0,0.0,42,0.00,,BKN110,0.00,VWS V14.01,2013-04-18 15:47:00,
2013-04-18 09:52:00,39.9,19.2,30.13,NW,316,0.0,0.0,43,0.00,,BKN110,0.00,VWS V14.01,2013-04-18 15:52:00,
2013-04-18 09:57:00,40.1,19.4,30.13,NW,316,0.0,0.0,43,0.00,,BKN110,0.00,VWS V14.01,2013-04-18 15:57:00,
2013-04-18 10:02:00,40.3,19.6,30.13,NW,311,0.0,0.0,43,0.00,,BKN110,0.00,VWS V14.01,2013-04-18 16:02:00,
2013-04-18 10:07:00,40.8,18.9,30.13,NW,322,0.0,0.0,41,0.00,,BKN110,0.00,VWS V14.01,2013-04-18 16:07:00,
2013-04-18 10:12:00,41.1,19.2,30.13,NW,304,0.0,0.0,41,0.00,,BKN110,0.00,VWS V14.01,2013-04-18 16:12:00,
2013-04-18 10:17:00,41.2,19.9,30.11,NW,308,0.0,0.0,42,0.00,,BKN110,0.00,VWS V14.01,2013-04-18 16:17:00,
2013-04-18 10:22:00,41.5,20.1,30.11,NW,322,0.0,0.0,42,0.00,,BKN110,0.00,VWS V14.01,2013-04-18 16:22:00,
2013-04-18 10:27:00,41.6,20.2,30.11,NW,322,0.0,0.0,42,0.00,,BKN110,0.00,VWS V14.01,2013-04-18 16:27:00,
2013-04-18 10:32:00,41.8,19.8,30.10,NW,322,0.0,0.0,41,0.00,,BKN110,0.00,VWS V14.01,2013-04-18 16:32:00,
2013-04-18 10:37:00,42.1,20.7,30.10,WNW,286,0.0,0.0,42,0.00,,BKN090,0.00,VWS V14.01,2013-04-18 16:37:00,
2013-04-18 10:42:00,42.2,20.8,30.10,NW,310,0.0,0.0,42,0.00,,BKN090,0.00,VWS V14.01,2013-04-18 16:42:00,
2013-04-18 10:47:00,42.2,20.2,30.10,WNW,290,0.0,0.0,41,0.00,,BKN090,0.00,VWS V14.01,2013-04-18 16:47:00,
2013-04-18 10:52:00,42.3,20.3,30.10,WNW,291,0.0,0.0,41,0.00,,BKN090,0.00,VWS V14.01,2013-04-18 16:52:00,
2013-04-18 10:57:00,42.8,20.8,30.10,NW,306,0.0,0.0,41,0.00,,BKN090,0.00,VWS V14.01,2013-04-18 16:57:00,
2013-04-18 11:02:00,43.2,21.1,30.10,NNW,332,0.0,0.0,41,0.00,,BKN090,0.00,VWS V14.01,2013-04-18 17:02:00,
2013-04-18 11:07:00,43.3,20.0,30.10,NW,314,0.0,0.0,39,0.00,,BKN090,0.00,VWS V14.01,2013-04-18 17:07:00,
2013-04-18 11:12:00,43.3,20.6,30.10,NW,313,0.0,2.0,40,0.00,,BKN090,0.00,VWS V14.01,2013-04-18 17:12:00,
2013-04-18 11:17:00,43.5,20.8,30.09,WNW,302,0.0,2.0,40,0.00,,BKN090,0.00,VWS V14.01,2013-04-18 17:17:00,
2013-04-18 11:22:00,43.6,20.3,30.09,NW,312,0.0,2.0,39,0.00,,BKN090,0.00,VWS V14.01,2013-04-18 17:22:00,
2013-04-18 11:27:00,43.8,20.5,30.09,NW,311,0.0,2.0,39,0.00,,BKN090,0.00,VWS V14.01,2013-04-18 17:27:00,
2013-04-18 11:32:00,44.1,21.3,30.08,NW,324,0.0,0.0,40,0.00,,BKN090,0.00,VWS V14.01,2013-04-18 17:32:00,
2013-04-18 11:37:00,44.2,21.4,30.08,NW,313,0.0,0.0,40,0.00,,SCT070,0.00,VWS V14.01,2013-04-18 17:37:00,
2013-04-18 11:42:00,44.3,21.5,30.08,NW,317,0.0,0.0,40,0.00,,SCT070,0.00,VWS V14.01,2013-04-18 17:42:00,
2013-04-18 11:47:00,44.3,19.7,30.08,NW,326,0.0,1.0,37,0.00,,SCT070,0.00,VWS V14.01,2013-04-18 17:47:00,
2013-04-18 11:52:00,44.5,21.7,30.08,NW,316,0.0,2.0,40,0.00,,SCT070,0.00,VWS V14.01,2013-04-18 17:52:00,
2013-04-18 11:57:00,44.8,21.4,30.08,NW,309,0.0,2.0,39,0.00,,SCT070,0.00,VWS V14.01,2013-04-18 17:57:00,
2013-04-18 12:02:00,45.1,20.4,30.08,NNW,329,0.0,0.0,37,0.00,,SCT070,0.00,VWS V14.01,2013-04-18 18:02:00,
2013-04-18 12:07:00,45.2,20.5,30.08,NW,318,0.0,0.0,37,0.00,,SCT070,0.00,VWS V14.01,2013-04-18 18:07:00,
2013-04-18 12:12:00,45.1,20.4,30.08,NW,319,0.0,1.0,37,0.00,,SCT070,0.00,VWS V14.01,2013-04-18 18:12:00,
2013-04-18 12:17:00,45.4,21.9,30.09,NNW,327,0.0,1.0,39,0.00,,SCT070,0.00,VWS V14.01,2013-04-18 18:17:00,
2013-04-18 12:22:00,46.1,21.3,30.09,NW,323,0.0,1.0,37,0.00,,SCT070,0.00,VWS V14.01,2013-04-18 18:22:00,
2013-04-18 12:27:00,46.8,21.3,30.09,NW,319,0.0,1.0,36,0.00,,SCT070,0.00,VWS V14.01,2013-04-18 18:27:00,
2013-04-18 12:32:00,47.3,19.7,30.07,WNW,293,0.0,0.0,33,0.00,,SCT070,0.00,VWS V14.01,2013-04-18 18:32:00,
2013-04-18 12:37:00,47.6,19.9,30.07,NW,316,0.0,2.0,33,0.00,,FEW080,0.00,VWS V14.01,2013-04-18 18:37:00,
2013-04-18 12:42:00,47.3,21.0,30.07,NW,318,0.0,2.0,35,0.00,,FEW080,0.00,VWS V14.01,2013-04-18 18:42:00,
2013-04-18 12:47:00,47.4,19.8,30.07,NW,322,0.0,2.0,33,0.00,,FEW080,0.00,VWS V14.01,2013-04-18 18:47:00,
2013-04-18 12:52:00,47.6,20.6,30.07,NW,305,0.0,3.0,34,0.00,,FEW080,0.00,VWS V14.01,2013-04-18 18:52:00,
2013-04-18 12:57:00,48.3,19.1,30.07,SE,129,0.0,3.0,31,0.00,,FEW080,0.00,VWS V14.01,2013-04-18 18:57:00,
2013-04-18 13:02:00,49.4,20.0,30.06,NW,319,0.0,0.0,31,0.00,,FEW080,0.00,VWS V14.01,2013-04-18 19:02:00,
2013-04-18 13:07:00,49.5,18.6,30.06,NW,315,0.0,2.0,29,0.00,,FEW080,0.00,VWS V14.01,2013-04-18 19:07:00,
2013-04-18 13:12:00,48.9,21.1,30.06,NW,314,0.0,3.0,33,0.00,,FEW080,0.00,VWS V14.01,2013-04-18 19:12:00,
2013-04-18 13:17:00,48.9,20.4,30.06,NW,311,0.0,3.0,32,0.00,,FEW080,0.00,VWS V14.01,2013-04-18 19:17:00,
2013-04-18 13:22:00,49.1,18.2,30.06,NW,311,0.0,3.0,29,0.00,,FEW080,0.00,VWS V14.01,2013-04-18 19:22:00,
2013-04-18 13:27:00,49.6,20.2,30.06,NW,306,0.0,3.0,31,0.00,,FEW080,0.00,VWS V14.01,2013-04-18 19:27:00,
2013-04-18 13:32:00,49.5,18.6,30.06,NNW,347,0.0,1.0,29,0.00,,FEW080,0.00,VWS V14.01,2013-04-18 19:32:00,
2013-04-18 13:37:00,49.5,20.1,30.06,North,0,0.0,1.0,31,0.00,,SCT080,0.00,VWS V14.01,2013-04-18 19:37:00,
2013-04-18 13:42:00,49.5,20.1,30.06,East,97,0.0,3.0,31,0.00,,SCT080,0.00,VWS V14.01,2013-04-18 19:42:00,
2013-04-18 13:47:00,49.8,18.8,30.06,NW,323,0.0,3.0,29,0.00,,SCT080,0.00,VWS V14.01,2013-04-18 19:47:00,
2013-04-18 13:52:00,50.2,20.8,30.06,NW,325,0.0,3.0,31,0.00,,SCT080,0.00,VWS V14.01,2013-04-18 19:52:00,
2013-04-18 13:57:00,50.7,19.6,30.06,NW,321,0.0,3.0,29,0.00,,SCT080,0.00,VWS V14.01,2013-04-18 19:57:00,
2013-04-18 14:02:00,50.2,19.2,30.05,NW,320,0.0,2.0,29,0.00,,SCT080,0.00,VWS V14.01,2013-04-18 20:02:00,
2013-04-18 14:07:00,49.9,18.9,30.05,NNW,331,0.0,2.0,29,0.00,,SCT080,0.00,VWS V14.01,2013-04-18 20:07:00,
2013-04-18 14:12:00,50.2,20.8,30.05,NW,305,0.0,2.0,31,0.00,,SCT080,0.00,VWS V14.01,2013-04-18 20:12:00,
2013-04-18 14:17:00,50.4,19.4,30.05,NW,319,0.0,2.0,29,0.00,,SCT080,0.00,VWS V14.01,2013-04-18 20:17:00,
2013-04-18 14:22:00,50.5,21.0,30.05,NW,316,0.0,2.0,31,0.00,,SCT080,0.00,VWS V14.01,2013-04-18 20:22:00,
2013-04-18 14:27:00,51.1,20.0,30.05,SE,141,0.0,3.0,29,0.00,,SCT080,0.00,VWS V14.01,2013-04-18 20:27:00,
2013-04-18 14:32:00,51.0,19.1,30.05,NW,316,0.0,0.0,28,0.00,,SCT080,0.00,VWS V14.01,2013-04-18 20:32:00,
2013-04-18 14:37:00,51.3,20.9,30.05,NNW,331,0.0,2.0,30,0.00,,BKN080,0.00,VWS V14.01,2013-04-18 20:37:00,
2013-04-18 14:42:00,51.4,19.4,30.05,South,175,0.0,2.0,28,0.00,,BKN080,0.00,VWS V14.01,2013-04-18 20:42:00,
2013-04-18 14:47:00,52.2,19.2,30.04,NNW,338,0.0,2.0,27,0.00,,BKN080,0.00,VWS V14.01,2013-04-18 20:47:00,
2013-04-18 14:52:00,51.6,19.6,30.04,NW,322,0.0,2.0,28,0.00,,BKN080,0.00,VWS V14.01,2013-04-18 20:52:00,
2013-04-18 14:57:00,51.9,21.5,30.04,SE,134,0.0,2.0,30,0.00,,BKN080,0.00,VWS V14.01,2013-04-18 20:57:00,
2013-04-18 15:02:00,52.5,19.5,30.04,SE,131,0.0,3.0,27,0.00,,BKN080,0.00,VWS V14.01,2013-04-18 21:02:00,
2013-04-18 15:07:00,52.3,20.2,30.04,NNW,341,0.0,3.0,28,0.00,,BKN080,0.00,VWS V14.01,2013-04-18 21:07:00,
2013-04-18 15:12:00,52.5,20.4,30.04,NW,316,0.0,3.0,28,0.00,,BKN080,0.00,VWS V14.01,2013-04-18 21:12:00,
2013-04-18 15:17:00,52.0,19.9,30.04,SE,140,0.0,3.0,28,0.00,,BKN080,0.00,VWS V14.01,2013-04-18 21:17:00,
2013-04-18 15:22:00,51.7,18.8,30.04,NW,317,0.0,3.0,27,0.00,,BKN080,0.00,VWS V14.01,2013-04-18 21:22:00,
2013-04-18 15:27:00,51.4,19.4,30.04,NW,322,0.0,3.0,28,0.00,,BKN080,0.00,VWS V14.01,2013-04-18 21:27:00,
2013-04-18 15:32:00,51.3,19.3,30.05,NW,311,0.0,0.0,28,0.00,,BKN080,0.00,VWS V14.01,2013-04-18 21:32:00,
2013-04-18 15:37:00,51.0,19.1,30.05,NW,323,0.0,0.0,28,0.00,,BKN080,0.00,VWS V14.01,2013-04-18 21:37:00,
2013-04-18 15:42:00,51.3,20.1,30.05,East,91,0.0,1.0,29,0.00,,BKN080,0.00,VWS V14.01,2013-04-18 21:42:00,
2013-04-18 15:47:00,52.0,19.1,30.04,NW,311,0.0,1.0,27,0.00,,BKN080,0.00,VWS V14.01,2013-04-18 21:47:00,
2013-04-18 15:52:00,52.2,19.2,30.04,SE,144,0.0,2.0,27,0.00,,BKN080,0.00,VWS V14.01,2013-04-18 21:52:00,
2013-04-18 15:57:00,52.2,20.1,30.04,NNW,333,0.0,2.0,28,0.00,,BKN080,0.00,VWS V14.01,2013-04-18 21:57:00,
2013-04-18 16:02:00,52.3,19.3,30.04,NW,316,0.0,0.0,27,0.00,,BKN080,0.00,VWS V14.01,2013-04-18 22:02:00,
2013-04-18 16:07:00,52.0,19.1,30.04,NW,315,0.0,0.0,27,0.00,,BKN080,0.00,VWS V14.01,2013-04-18 22:07:00,
2013-04-18 16:12:00,51.6,18.7,30.04,NW,310,0.0,4.0,27,0.00,,BKN080,0.00,VWS V14.01,2013-04-18 22:12:00,
2013-04-18 16:17:00,50.8,18.0,30.05,ENE,60,0.0,4.0,27,0.00,,BKN080,0.00,VWS V14.01,2013-04-18 22:17:00,
2013-04-18 16:22:00,50.5,17.8,30.05,ESE,117,0.0,4.0,27,0.00,,BKN080,0.00,VWS V14.01,2013-04-18 22:22:00,
2013-04-18 16:27:00,50.7,18.8,30.05,North,349,0.0,4.0,28,0.00,,BKN080,0.00,VWS V14.01,2013-04-18 22:27:00,
2013-04-18 16:32:00,50.7,18.8,30.05,NNW,333,0.0,0.0,28,0.00,,BKN080,0.00,VWS V14.01,2013-04-18 22:32:00,
2013-04-18 16:37:00,50.4,18.5,30.05,NW,314,0.0,0.0,28,0.00,,BKN080,0.00,VWS V14.01,2013-04-18 22:37:00,
2013-04-18 16:42:00,50.1,18.3,30.05,NW,323,0.0,0.0,28,0.00,,BKN080,0.00,VWS V14.01,2013-04-18 22:42:00,
2013-04-18 16:47:00,49.8,18.0,30.05,NNW,328,0.0,2.0,28,0.00,,BKN080,0.00,VWS V14.01,2013-04-18 22:47:00,
2013-04-18 16:52:00,49.4,18.5,30.05,NW,307,0.0,2.0,29,0.00,,BKN080,0.00,VWS V14.01,2013-04-18 22:52:00,
2013-04-18 16:57:00,49.6,19.5,30.05,NNW,337,0.0,2.0,30,0.00,,BKN080,0.00,VWS V14.01,2013-04-18 22:57:00,
2013-04-18 17:02:00,50.2,19.2,30.04,NW,314,0.0,1.0,29,0.00,,BKN080,0.00,VWS V14.01,2013-04-18 23:02:00,
2013-04-18 17:07:00,50.5,20.2,30.04,NW,309,0.0,1.0,30,0.00,,BKN080,0.00,VWS V14.01,2013-04-18 23:07:00,
2013-04-18 17:12:00,51.0,19.9,30.04,NW,321,0.0,2.0,29,0.00,,BKN080,0.00,VWS V14.01,2013-04-18 23:12:00,
2013-04-18 17:17:00,51.3,19.3,30.05,NNW,332,0.0,2.0,28,0.00,,BKN080,0.00,VWS V14.01,2013-04-18 23:17:00,
2013-04-18 17:22:00,51.6,19.6,30.05,NW,307,0.0,2.0,28,0.00,,BKN080,0.00,VWS V14.01,2013-04-18 23:22:00,
2013-04-18 17:27:00,51.7,21.3,30.05,NW,312,0.0,2.0,30,0.00,,BKN080,0.00,VWS V14.01,2013-04-18 23:27:00,
2013-04-18 17:32:00,51.1,20.8,30.04,NW,309,0.0,0.0,30,0.00,,BKN080,0.00,VWS V14.01,2013-04-18 23:32:00,
2013-04-18 17:37:00,51.7,19.7,30.04,NW,315,0.0,0.0,28,0.00,,SCT050,0.00,VWS V14.01,2013-04-18 23:37:00,
2013-04-18 17:42:00,51.4,21.0,30.04,NW,315,0.0,1.0,30,0.00,,SCT050,0.00,VWS V14.01,2013-04-18 23:42:00,
2013-04-18 17:47:00,51.1,20.8,30.04,WNW,295,0.0,1.0,30,0.00,,SCT050,0.00,VWS V14.01,2013-04-18 23:47:00,
2013-04-18 17:52:00,51.1,20.8,30.04,NW,318,0.0,1.0,30,0.00,,SCT050,0.00,VWS V14.01,2013-04-18 23:52:00,
2013-04-18 17:57:00,50.2,20.8,30.04,NW,316,0.0,3.0,31,0.00,,SCT050,0.00,VWS V14.01,2013-04-18 23:57:00,
2013-04-18 18:02:00,49.8,20.4,30.04,NW,311,0.0,0.0,31,0.00,,SCT050,0.00,VWS V14.01,2013-04-19 00:02:00,
2013-04-18 18:07:00,49.5,20.9,30.04,NW,311,0.0,2.0,32,0.00,,SCT050,0.00,VWS V14.01,2013-04-19 00:07:00,
2013-04-18 18:12:00,49.4,20.8,30.04,NW,318,0.0,2.0,32,0.00,,SCT050,0.00,VWS V14.01,2013-04-19 00:12:00,
2013-04-18 18:17:00,49.2,21.3,30.05,NW,321,0.0,2.0,33,0.00,,SCT050,0.00,VWS V14.01,2013-04-19 00:17:00,
2013-04-18 18:22:00,49.1,21.3,30.05,NW,321,0.0,2.0,33,0.00,,SCT050,0.00,VWS V14.01,2013-04-19 00:22:00,
2013-04-18 18:27:00,49.1,22.0,30.05,NW,321,0.0,2.0,34,0.00,,SCT050,0.00,VWS V14.01,2013-04-19 00:27:00,
2013-04-18 18:32:00,48.9,21.1,30.05,NW,321,0.0,0.0,33,0.00,,SCT050,0.00,VWS V14.01,2013-04-19 00:32:00,
2013-04-18 18:37:00,48.8,22.4,30.05,NW,314,0.0,0.0,35,0.00,,SCT050,0.00,VWS V14.01,2013-04-19 00:37:00,
2013-04-18 18:42:00,48.8,21.7,30.05,NW,314,0.0,0.0,34,0.00,,SCT050,0.00,VWS V14.01,2013-04-19 00:42:00,
2013-04-18 18:47:00,48.6,22.2,30.05,NW,309,0.0,0.0,35,0.00,,SCT050,0.00,VWS V14.01,2013-04-19 00:47:00,
2013-04-18 18:52:00,48.3,22.6,30.05,NW,314,0.0,0.0,36,0.00,,SCT050,0.00,VWS V14.01,2013-04-19 00:52:00,
2013-04-18 18:57:00,48.2,21.9,30.05,NW,314,0.0,0.0,35,0.00,,SCT050,0.00,VWS V14.01,2013-04-19 00:57:00,
2013-04-18 19:02:00,48.0,21.7,30.05,NW,314,0.0,0.0,35,0.00,,SCT050,0.00,VWS V14.01,2013-04-19 01:02:00,
2013-04-18 19:07:00,47.9,23.5,30.05,NW,314,0.0,0.0,38,0.00,,SCT050,0.00,VWS V14.01,2013-04-19 01:07:00,
2013-04-18 19:12:00,47.7,22.7,30.05,NW,314,0.0,0.0,37,0.00,,SCT050,0.00,VWS V14.01,2013-04-19 01:12:00,
2013-04-18 19:17:00,47.6,22.0,30.03,NW,314,0.0,0.0,36,0.00,,SCT050,0.00,VWS V14.01,2013-04-19 01:17:00,
2013-04-18 19:22:00,47.4,21.1,30.03,NNW,327,0.0,0.0,35,0.00,,SCT050,0.00,VWS V14.01,2013-04-19 01:22:00,
2013-04-18 19:27:00,47.4,21.1,30.03,NNW,327,0.0,0.0,35,0.00,,SCT050,0.00,VWS V14.01,2013-04-19 01:27:00,
2013-04-18 19:32:00,47.3,21.7,30.04,NNW,327,0.0,0.0,36,0.00,,SCT050,0.00,VWS V14.01,2013-04-19 01:32:00,
2013-04-18 19:37:00,47.1,22.2,30.04,NNW,327,0.0,0.0,37,0.00,,BKN200,0.00,VWS V14.01,2013-04-19 01:37:00,
2013-04-18 19:42:00,47.0,22.7,30.04,NNW,328,0.0,0.0,38,0.00,,BKN200,0.00,VWS V14.01,2013-04-19 01:42:00,
2013-04-18 19:47:00,46.8,22.5,30.04,ESE,123,0.0,0.0,38,0.00,,BKN200,0.00,VWS V14.01,2013-04-19 01:47:00,
2013-04-18 19:52:00,46.5,22.3,30.04,WNW,292,0.0,0.0,38,0.00,,BKN200,0.00,VWS V14.01,2013-04-19 01:52:00,
2013-04-18 19:57:00,46.4,22.8,30.04,WNW,292,0.0,0.0,39,0.00,,BKN200,0.00,VWS V14.01,2013-04-19 01:57:00,
2013-04-18 20:02:00,46.1,21.9,30.04,North,1,0.0,0.0,38,0.00,,BKN200,0.00,VWS V14.01,2013-04-19 02:02:00,
2013-04-18 20:07:00,46.0,26.4,30.04,North,4,0.0,0.0,46,0.00,,BKN200,0.00,VWS V14.01,2013-04-19 02:07:00,
2013-04-18 20:12:00,45.5,24.9,30.04,North,356,0.0,0.0,44,0.00,,BKN200,0.00,VWS V14.01,2013-04-19 02:12:00,
2013-04-18 20:17:00,45.2,24.6,30.04,North,356,0.0,0.0,44,0.00,,BKN200,0.00,VWS V14.01,2013-04-19 02:17:00,
2013-04-18 20:22:00,45.1,25.6,30.04,North,356,0.0,0.0,46,0.00,,BKN200,0.00,VWS V14.01,2013-04-19 02:22:00,
2013-04-18 20:27:00,44.8,25.3,30.04,North,356,0.0,0.0,46,0.00,,BKN200,0.00,VWS V14.01,2013-04-19 02:27:00,
2013-04-18 20:32:00,44.5,26.5,30.03,North,356,0.0,0.0,49,0.00,,BKN200,0.00,VWS V14.01,2013-04-19 02:32:00,
2013-04-18 20:37:00,43.9,27.0,30.03,North,356,0.0,0.0,51,0.00,,SCT200,0.00,VWS V14.01,2013-04-19 02:37:00,
2013-04-18 20:42:00,43.5,27.5,30.03,North,356,0.0,0.0,53,0.00,,SCT200,0.00,VWS V14.01,2013-04-19 02:42:00,
2013-04-18 20:47:00,42.6,26.7,30.04,North,358,0.0,0.0,53,0.00,,SCT200,0.00,VWS V14.01,2013-04-19 02:47:00,
2013-04-18 20:52:00,42.1,26.2,30.04,North,358,0.0,0.0,53,0.00,,SCT200,0.00,VWS V14.01,2013-04-19 02:52:00,
2013-04-18 20:57:00,41.6,26.6,30.04,North,358,0.0,0.0,55,0.00,,SCT200,0.00,VWS V14.01,2013-04-19 02:57:00,
2013-04-18 21:02:00,41.3,26.4,30.05,North,4,0.0,0.0,55,0.00,,SCT200,0.00,VWS V14.01,2013-04-19 03:02:00,
2013-04-18 21:07:00,41.3,26.4,30.05,North,4,0.0,0.0,55,0.00,,SCT200,0.00,VWS V14.01,2013-04-19 03:07:00,
2013-04-18 21:12:00,41.2,26.7,30.05,North,4,0.0,0.0,56,0.00,,SCT200,0.00,VWS V14.01,2013-04-19 03:12:00,
2013-04-18 21:17:00,40.9,26.9,30.03,North,4,0.0,0.0,57,0.00,,SCT200,0.00,VWS V14.01,2013-04-19 03:17:00,
2013-04-18 21:22:00,40.9,26.4,30.03,North,4,0.0,0.0,56,0.00,,SCT200,0.00,VWS V14.01,2013-04-19 03:22:00,
2013-04-18 21:27:00,40.8,26.8,30.03,North,4,0.0,0.0,57,0.00,,SCT200,0.00,VWS V14.01,2013-04-19 03:27:00,
2013-04-18 21:32:00,40.6,27.8,30.02,North,4,0.0,0.0,60,0.00,,SCT200,0.00,VWS V14.01,2013-04-19 03:32:00,
2013-04-18 21:37:00,40.5,24.7,30.02,North,4,0.0,0.0,53,0.00,,BKN200,0.00,VWS V14.01,2013-04-19 03:37:00,
2013-04-18 21:42:00,40.6,26.6,30.02,North,4,0.0,0.0,57,0.00,,BKN200,0.00,VWS V14.01,2013-04-19 03:42:00,
2013-04-18 21:47:00,40.6,27.4,30.02,North,4,0.0,0.0,59,0.00,,BKN200,0.00,VWS V14.01,2013-04-19 03:47:00,
2013-04-18 21:52:00,40.8,25.0,30.02,North,4,0.0,0.0,53,0.00,,BKN200,0.00,VWS V14.01,2013-04-19 03:52:00,
2013-04-18 21:57:00,40.9,26.4,30.02,North,4,0.0,0.0,56,0.00,,BKN200,0.00,VWS V14.01,2013-04-19 03:57:00,
2013-04-18 22:01:00,41.1,27.0,30.02,North,4,0.0,0.0,57,0.00,,BKN200,0.00,VWS V14.01,2013-04-19 04:01:00,
2013-04-18 22:06:00,41.1,26.2,30.02,North,4,0.0,0.0,55,0.00,,BKN200,0.00,VWS V14.01,2013-04-19 04:06:00,
2013-04-18 22:11:00,41.2,26.7,30.02,North,4,0.0,0.0,56,0.00,,BKN200,0.00,VWS V14.01,2013-04-19 04:11:00,
2013-04-18 22:16:00,41.3,27.2,30.00,North,4,0.0,0.0,57,0.00,,BKN200,0.00,VWS V14.01,2013-04-19 04:16:00,
2013-04-18 22:21:00,41.1,27.9,30.00,North,4,0.0,0.0,59,0.00,,BKN200,0.00,VWS V14.01,2013-04-19 04:21:00,
2013-04-18 22:26:00,40.9,27.7,30.00,North,4,0.0,0.0,59,0.00,,BKN200,0.00,VWS V14.01,2013-04-19 04:26:00,
2013-04-18 22:31:00,40.6,27.8,29.99,North,4,0.0,0.0,60,0.00,,BKN200,0.00,VWS V14.01,2013-04-19 04:31:00,
2013-04-18 22:36:00,40.3,27.9,29.99,North,4,0.0,0.0,61,0.00,,BKN200,0.00,VWS V14.01,2013-04-19 04:36:00,
2013-04-18 22:41:00,39.9,28.0,29.99,North,4,0.0,0.0,62,0.00,,BKN200,0.00,VWS V14.01,2013-04-19 04:41:00,
2013-04-18 22:46:00,39.6,27.7,30.00,North,4,0.0,0.0,62,0.00,,BKN200,0.00,VWS V14.01,2013-04-19 04:46:00,
2013-04-18 22:51:00,39.5,27.2,30.00,North,4,0.0,0.0,61,0.00,,BKN200,0.00,VWS V14.01,2013-04-19 04:51:00,
2013-04-18 22:56:00,39.3,27.4,30.00,North,4,0.0,0.0,62,0.00,,BKN200,0.00,VWS V14.01,2013-04-19 04:56:00,
2013-04-18 23:01:00,39.1,27.6,29.99,North,4,0.0,0.0,63,0.00,,BKN200,0.00,VWS V14.01,2013-04-19 05:01:00,
2013-04-18 23:06:00,38.9,27.4,29.99,North,4,0.0,0.0,63,0.00,,BKN200,0.00,VWS V14.01,2013-04-19 05:06:00,
2013-04-18 23:11:00,38.8,27.3,29.99,North,4,0.0,0.0,63,0.00,,BKN200,0.00,VWS V14.01,2013-04-19 05:11:00,
2013-04-18 23:16:00,38.6,27.5,29.97,North,4,0.0,0.0,64,0.00,,BKN200,0.00,VWS V14.01,2013-04-19 05:16:00,
2013-04-18 23:21:00,38.6,27.5,29.97,North,4,0.0,0.0,64,0.00,,BKN200,0.00,VWS V14.01,2013-04-19 05:21:00,
2013-04-18 23:26:00,38.6,27.5,29.97,North,4,0.0,0.0,64,0.00,,BKN200,0.00,VWS V14.01,2013-04-19 05:26:00,
2013-04-18 23:31:00,38.6,27.5,29.96,North,4,0.0,0.0,64,0.00,,BKN200,0.00,VWS V14.01,2013-04-19 05:31:00,
2013-04-18 23:36:00,38.5,27.4,29.96,North,4,0.0,0.0,64,0.00,,BKN100,0.00,VWS V14.01,2013-04-19 05:36:00,
2013-04-18 23:41:00,38.5,27.4,29.96,North,4,0.0,0.0,64,0.00,,BKN100,0.00,VWS V14.01,2013-04-19 05:41:00,
2013-04-18 23:46:00,38.5,27.4,29.95,North,4,0.0,0.0,64,0.00,,BKN100,0.00,VWS V14.01,2013-04-19 05:46:00,
2013-04-18 23:51:00,38.3,27.6,29.95,North,4,0.0,0.0,65,0.00,,BKN100,0.00,VWS V14.01,2013-04-19 05:51:00,
2013-04-18 23:56:00,38.3,28.0,29.95,North,4,0.0,0.0,66,0.00,,BKN100,0.00,VWS V14.01,2013-04-19 05:56:00,